sensor_id;sensor_type;location;lat;lon;timestamp;P1;durP1;ratioP1;P2;durP2;ratioP2
12846;SDS011;6492;48.128;8.320;2023-02-17T00:00:25;7.47;;;4.37;;
12846;SDS011;6492;48.128;8.320;2023-02-17T00:04:27;7.40;;;3.90;;
12846;SDS011;6492;48.128;8.320;2023-02-17T00:08:30;6.23;;;3.70;;
12846;SDS011;6492;48.128;8.320;2023-02-17T00:12:32;5.83;;;3.80;;
12846;SDS011;6492;48.128;8.320;2023-02-17T00:16:34;7.00;;;4.10;;
12846;SDS011;6492;48.128;8.320;2023-02-17T00:20:36;9.77;;;4.20;;
12846;SDS011;6492;48.128;8.320;2023-02-17T00:24:39;7.43;;;4.50;;
12846;SDS011;6492;48.128;8.320;2023-02-17T00:28:41;5.73;;;3.90;;
12846;SDS011;6492;48.128;8.320;2023-02-17T00:32:43;6.33;;;4.03;;
12846;SDS011;6492;48.128;8.320;2023-02-17T00:36:45;7.03;;;3.97;;
12846;SDS011;6492;48.128;8.320;2023-02-17T00:40:48;6.47;;;3.87;;
12846;SDS011;6492;48.128;8.320;2023-02-17T00:44:50;5.63;;;4.13;;
12846;SDS011;6492;48.128;8.320;2023-02-17T00:48:52;5.83;;;3.93;;
12846;SDS011;6492;48.128;8.320;2023-02-17T00:52:54;8.53;;;4.20;;
12846;SDS011;6492;48.128;8.320;2023-02-17T00:56:57;8.37;;;4.90;;
12846;SDS011;6492;48.128;8.320;2023-02-17T01:00:59;6.67;;;4.33;;
12846;SDS011;6492;48.128;8.320;2023-02-17T01:05:01;7.73;;;4.37;;
12846;SDS011;6492;48.128;8.320;2023-02-17T01:09:04;7.47;;;4.70;;
12846;SDS011;6492;48.128;8.320;2023-02-17T01:13:09;6.47;;;4.30;;
12846;SDS011;6492;48.128;8.320;2023-02-17T01:17:12;7.87;;;4.50;;
12846;SDS011;6492;48.128;8.320;2023-02-17T01:21:14;8.17;;;4.93;;
12846;SDS011;6492;48.128;8.320;2023-02-17T01:25:16;7.30;;;4.47;;
12846;SDS011;6492;48.128;8.320;2023-02-17T01:29:20;8.40;;;4.20;;
12846;SDS011;6492;48.128;8.320;2023-02-17T01:33:21;6.83;;;4.00;;
12846;SDS011;6492;48.128;8.320;2023-02-17T01:37:23;8.13;;;4.43;;
12846;SDS011;6492;48.128;8.320;2023-02-17T01:41:25;6.67;;;4.40;;
12846;SDS011;6492;48.128;8.320;2023-02-17T01:45:45;5.63;;;3.80;;
12846;SDS011;6492;48.128;8.320;2023-02-17T01:49:51;6.80;;;4.03;;
12846;SDS011;6492;48.128;8.320;2023-02-17T01:53:53;8.70;;;3.87;;
12846;SDS011;6492;48.128;8.320;2023-02-17T01:57:58;5.43;;;4.20;;
12846;SDS011;6492;48.128;8.320;2023-02-17T02:02:04;5.30;;;3.90;;
12846;SDS011;6492;48.128;8.320;2023-02-17T02:06:08;7.70;;;4.40;;
12846;SDS011;6492;48.128;8.320;2023-02-17T02:10:14;6.40;;;3.90;;
12846;SDS011;6492;48.128;8.320;2023-02-17T02:14:18;4.90;;;3.57;;
12846;SDS011;6492;48.128;8.320;2023-02-17T02:18:26;7.40;;;3.87;;
12846;SDS011;6492;48.128;8.320;2023-02-17T02:22:42;7.90;;;3.83;;
12846;SDS011;6492;48.128;8.320;2023-02-17T02:27:13;7.37;;;3.50;;
12846;SDS011;6492;48.128;8.320;2023-02-17T02:31:33;5.80;;;3.33;;
12846;SDS011;6492;48.128;8.320;2023-02-17T02:35:46;7.30;;;3.27;;
12846;SDS011;6492;48.128;8.320;2023-02-17T02:39:57;5.67;;;3.30;;
12846;SDS011;6492;48.128;8.320;2023-02-17T02:44:03;6.60;;;3.33;;
12846;SDS011;6492;48.128;8.320;2023-02-17T02:48:06;4.17;;;2.90;;
12846;SDS011;6492;48.128;8.320;2023-02-17T02:52:11;5.50;;;2.60;;
12846;SDS011;6492;48.128;8.320;2023-02-17T02:56:23;5.43;;;3.20;;
12846;SDS011;6492;48.128;8.320;2023-02-17T03:00:31;5.20;;;3.10;;
12846;SDS011;6492;48.128;8.320;2023-02-17T03:04:40;4.87;;;2.70;;
12846;SDS011;6492;48.128;8.320;2023-02-17T03:08:47;4.00;;;2.70;;
12846;SDS011;6492;48.128;8.320;2023-02-17T03:12:54;5.23;;;2.73;;
12846;SDS011;6492;48.128;8.320;2023-02-17T03:16:57;3.47;;;2.67;;
12846;SDS011;6492;48.128;8.320;2023-02-17T03:21:00;5.13;;;2.80;;
12846;SDS011;6492;48.128;8.320;2023-02-17T03:25:06;4.43;;;2.80;;
12846;SDS011;6492;48.128;8.320;2023-02-17T03:29:08;4.23;;;2.53;;
12846;SDS011;6492;48.128;8.320;2023-02-17T03:33:10;5.77;;;3.23;;
12846;SDS011;6492;48.128;8.320;2023-02-17T03:37:12;3.93;;;2.87;;
12846;SDS011;6492;48.128;8.320;2023-02-17T03:41:15;4.60;;;2.27;;
12846;SDS011;6492;48.128;8.320;2023-02-17T03:45:16;4.50;;;2.60;;
12846;SDS011;6492;48.128;8.320;2023-02-17T03:49:18;2.90;;;2.50;;
12846;SDS011;6492;48.128;8.320;2023-02-17T03:53:20;3.60;;;2.40;;
12846;SDS011;6492;48.128;8.320;2023-02-17T03:57:23;4.17;;;2.53;;
12846;SDS011;6492;48.128;8.320;2023-02-17T04:01:25;4.60;;;2.50;;
12846;SDS011;6492;48.128;8.320;2023-02-17T04:05:26;3.50;;;2.60;;
12846;SDS011;6492;48.128;8.320;2023-02-17T04:09:28;5.57;;;2.50;;
12846;SDS011;6492;48.128;8.320;2023-02-17T04:13:31;2.60;;;1.90;;
12846;SDS011;6492;48.128;8.320;2023-02-17T04:17:34;5.40;;;2.40;;
12846;SDS011;6492;48.128;8.320;2023-02-17T04:21:36;2.43;;;1.87;;
12846;SDS011;6492;48.128;8.320;2023-02-17T04:25:38;2.80;;;1.77;;
12846;SDS011;6492;48.128;8.320;2023-02-17T04:29:42;2.97;;;1.50;;
12846;SDS011;6492;48.128;8.320;2023-02-17T04:33:43;2.10;;;1.60;;
12846;SDS011;6492;48.128;8.320;2023-02-17T04:37:45;5.73;;;1.80;;
12846;SDS011;6492;48.128;8.320;2023-02-17T04:41:47;3.27;;;1.80;;
12846;SDS011;6492;48.128;8.320;2023-02-17T04:45:50;3.47;;;2.10;;
12846;SDS011;6492;48.128;8.320;2023-02-17T04:49:52;2.67;;;1.70;;
12846;SDS011;6492;48.128;8.320;2023-02-17T04:53:54;3.90;;;1.90;;
12846;SDS011;6492;48.128;8.320;2023-02-17T04:57:55;2.47;;;1.90;;
12846;SDS011;6492;48.128;8.320;2023-02-17T05:01:59;2.60;;;2.10;;
12846;SDS011;6492;48.128;8.320;2023-02-17T05:06:00;6.40;;;2.37;;
12846;SDS011;6492;48.128;8.320;2023-02-17T05:10:02;3.50;;;2.43;;
12846;SDS011;6492;48.128;8.320;2023-02-17T05:14:04;5.47;;;2.43;;
12846;SDS011;6492;48.128;8.320;2023-02-17T05:18:07;4.17;;;2.67;;
12846;SDS011;6492;48.128;8.320;2023-02-17T05:22:09;3.90;;;2.43;;
12846;SDS011;6492;48.128;8.320;2023-02-17T05:26:10;4.13;;;3.57;;
12846;SDS011;6492;48.128;8.320;2023-02-17T05:30:12;4.67;;;3.27;;
12846;SDS011;6492;48.128;8.320;2023-02-17T05:34:16;4.00;;;2.87;;
12846;SDS011;6492;48.128;8.320;2023-02-17T05:38:18;7.27;;;3.10;;
12846;SDS011;6492;48.128;8.320;2023-02-17T05:42:19;4.70;;;2.70;;
12846;SDS011;6492;48.128;8.320;2023-02-17T05:46:21;4.10;;;2.70;;
12846;SDS011;6492;48.128;8.320;2023-02-17T05:50:25;3.57;;;2.73;;
12846;SDS011;6492;48.128;8.320;2023-02-17T05:54:27;2.83;;;2.20;;
12846;SDS011;6492;48.128;8.320;2023-02-17T05:58:28;4.60;;;2.33;;
12846;SDS011;6492;48.128;8.320;2023-02-17T06:02:30;4.70;;;2.90;;
12846;SDS011;6492;48.128;8.320;2023-02-17T06:06:33;4.73;;;2.57;;
12846;SDS011;6492;48.128;8.320;2023-02-17T06:10:35;5.50;;;2.67;;
12846;SDS011;6492;48.128;8.320;2023-02-17T06:14:37;3.20;;;2.50;;
12846;SDS011;6492;48.128;8.320;2023-02-17T06:18:38;4.10;;;3.00;;
12846;SDS011;6492;48.128;8.320;2023-02-17T06:22:42;5.30;;;2.77;;
12846;SDS011;6492;48.128;8.320;2023-02-17T06:26:44;4.03;;;2.80;;
12846;SDS011;6492;48.128;8.320;2023-02-17T06:30:45;5.30;;;3.10;;
12846;SDS011;6492;48.128;8.320;2023-02-17T06:34:47;5.73;;;2.93;;
12846;SDS011;6492;48.128;8.320;2023-02-17T06:38:50;6.13;;;3.10;;
12846;SDS011;6492;48.128;8.320;2023-02-17T06:42:52;6.60;;;3.43;;
12846;SDS011;6492;48.128;8.320;2023-02-17T06:46:54;4.43;;;3.20;;
12846;SDS011;6492;48.128;8.320;2023-02-17T06:50:56;5.50;;;3.30;;
12846;SDS011;6492;48.128;8.320;2023-02-17T06:54:59;4.47;;;3.30;;
12846;SDS011;6492;48.128;8.320;2023-02-17T06:59:00;5.03;;;3.10;;
12846;SDS011;6492;48.128;8.320;2023-02-17T07:03:03;5.30;;;3.07;;
12846;SDS011;6492;48.128;8.320;2023-02-17T07:07:04;4.33;;;3.23;;
12846;SDS011;6492;48.128;8.320;2023-02-17T07:11:09;5.53;;;3.30;;
12846;SDS011;6492;48.128;8.320;2023-02-17T07:15:15;4.87;;;3.27;;
12846;SDS011;6492;48.128;8.320;2023-02-17T07:19:17;4.33;;;3.03;;
12846;SDS011;6492;48.128;8.320;2023-02-17T07:23:18;3.47;;;2.80;;
12846;SDS011;6492;48.128;8.320;2023-02-17T07:27:21;5.20;;;2.90;;
12846;SDS011;6492;48.128;8.320;2023-02-17T07:31:23;3.90;;;2.87;;
12846;SDS011;6492;48.128;8.320;2023-02-17T07:35:26;3.33;;;2.43;;
12846;SDS011;6492;48.128;8.320;2023-02-17T07:39:28;4.53;;;2.73;;
12846;SDS011;6492;48.128;8.320;2023-02-17T07:43:40;4.20;;;2.43;;
12846;SDS011;6492;48.128;8.320;2023-02-17T07:47:42;4.23;;;3.07;;
12846;SDS011;6492;48.128;8.320;2023-02-17T07:51:44;7.20;;;4.30;;
12846;SDS011;6492;48.128;8.320;2023-02-17T07:55:45;11.43;;;6.43;;
12846;SDS011;6492;48.128;8.320;2023-02-17T07:59:48;14.20;;;7.07;;
12846;SDS011;6492;48.128;8.320;2023-02-17T08:03:54;10.37;;;5.73;;
12846;SDS011;6492;48.128;8.320;2023-02-17T08:07:56;10.93;;;5.90;;
12846;SDS011;6492;48.128;8.320;2023-02-17T08:12:17;10.60;;;5.50;;
12846;SDS011;6492;48.128;8.320;2023-02-17T08:16:39;10.17;;;5.43;;
12846;SDS011;6492;48.128;8.320;2023-02-17T08:20:41;7.20;;;4.87;;
12846;SDS011;6492;48.128;8.320;2023-02-17T08:28:57;4.87;;;2.73;;
12846;SDS011;6492;48.128;8.320;2023-02-17T08:33:00;3.87;;;2.63;;
12846;SDS011;6492;48.128;8.320;2023-02-17T08:37:03;3.53;;;2.90;;
12846;SDS011;6492;48.128;8.320;2023-02-17T08:41:13;4.20;;;2.50;;
12846;SDS011;6492;48.128;8.320;2023-02-17T08:45:16;5.00;;;2.63;;
12846;SDS011;6492;48.128;8.320;2023-02-17T08:49:20;5.17;;;2.50;;
12846;SDS011;6492;48.128;8.320;2023-02-17T08:53:24;3.53;;;2.57;;
12846;SDS011;6492;48.128;8.320;2023-02-17T08:57:25;4.47;;;2.83;;
12846;SDS011;6492;48.128;8.320;2023-02-17T09:01:27;4.53;;;2.73;;
12846;SDS011;6492;48.128;8.320;2023-02-17T09:05:31;3.40;;;2.47;;
12846;SDS011;6492;48.128;8.320;2023-02-17T09:09:35;4.47;;;2.30;;
12846;SDS011;6492;48.128;8.320;2023-02-17T09:13:37;4.27;;;2.00;;
12846;SDS011;6492;48.128;8.320;2023-02-17T09:17:39;3.30;;;2.20;;
12846;SDS011;6492;48.128;8.320;2023-02-17T09:21:43;2.47;;;1.93;;
12846;SDS011;6492;48.128;8.320;2023-02-17T09:25:45;3.83;;;2.10;;
12846;SDS011;6492;48.128;8.320;2023-02-17T09:29:48;3.27;;;2.20;;
12846;SDS011;6492;48.128;8.320;2023-02-17T09:33:50;2.87;;;2.40;;
12846;SDS011;6492;48.128;8.320;2023-02-17T09:37:54;2.53;;;1.90;;
12846;SDS011;6492;48.128;8.320;2023-02-17T09:41:56;2.70;;;1.73;;
12846;SDS011;6492;48.128;8.320;2023-02-17T09:45:59;10.47;;;7.33;;
12846;SDS011;6492;48.128;8.320;2023-02-17T09:50:08;2.77;;;1.87;;
12846;SDS011;6492;48.128;8.320;2023-02-17T09:54:15;3.97;;;2.00;;
12846;SDS011;6492;48.128;8.320;2023-02-17T09:58:22;3.60;;;2.77;;
12846;SDS011;6492;48.128;8.320;2023-02-17T10:02:28;2.63;;;2.10;;
12846;SDS011;6492;48.128;8.320;2023-02-17T10:06:36;2.80;;;2.13;;
12846;SDS011;6492;48.128;8.320;2023-02-17T10:10:43;3.10;;;2.67;;
12846;SDS011;6492;48.128;8.320;2023-02-17T10:14:52;3.83;;;3.23;;
12846;SDS011;6492;48.128;8.320;2023-02-17T10:18:58;3.00;;;1.80;;
12846;SDS011;6492;48.128;8.320;2023-02-17T10:23:03;2.77;;;2.00;;
12846;SDS011;6492;48.128;8.320;2023-02-17T10:27:19;2.60;;;2.00;;
12846;SDS011;6492;48.128;8.320;2023-02-17T10:31:40;10.03;;;7.73;;
12846;SDS011;6492;48.128;8.320;2023-02-17T10:35:47;3.03;;;2.00;;
12846;SDS011;6492;48.128;8.320;2023-02-17T10:39:58;2.43;;;2.17;;
12846;SDS011;6492;48.128;8.320;2023-02-17T10:44:04;2.33;;;1.77;;
12846;SDS011;6492;48.128;8.320;2023-02-17T10:48:11;1.83;;;1.50;;
12846;SDS011;6492;48.128;8.320;2023-02-17T10:52:16;1.63;;;1.33;;
12846;SDS011;6492;48.128;8.320;2023-02-17T10:56:19;2.20;;;1.60;;
12846;SDS011;6492;48.128;8.320;2023-02-17T11:00:25;1.90;;;1.23;;
12846;SDS011;6492;48.128;8.320;2023-02-17T11:04:27;1.43;;;1.30;;
12846;SDS011;6492;48.128;8.320;2023-02-17T11:08:43;2.50;;;1.60;;
12846;SDS011;6492;48.128;8.320;2023-02-17T11:12:46;1.47;;;1.37;;
12846;SDS011;6492;48.128;8.320;2023-02-17T11:16:51;2.50;;;1.50;;
12846;SDS011;6492;48.128;8.320;2023-02-17T11:20:59;1.67;;;1.30;;
12846;SDS011;6492;48.128;8.320;2023-02-17T11:25:04;1.90;;;1.60;;
12846;SDS011;6492;48.128;8.320;2023-02-17T11:29:09;2.13;;;1.80;;
12846;SDS011;6492;48.128;8.320;2023-02-17T11:33:19;2.87;;;2.03;;
12846;SDS011;6492;48.128;8.320;2023-02-17T11:37:22;3.03;;;2.20;;
12846;SDS011;6492;48.128;8.320;2023-02-17T11:41:37;2.20;;;1.77;;
12846;SDS011;6492;48.128;8.320;2023-02-17T11:45:39;1.83;;;1.60;;
12846;SDS011;6492;48.128;8.320;2023-02-17T11:54:08;2.73;;;1.67;;
12846;SDS011;6492;48.128;8.320;2023-02-17T11:58:18;1.70;;;1.60;;
12846;SDS011;6492;48.128;8.320;2023-02-17T12:02:37;2.20;;;1.53;;
12846;SDS011;6492;48.128;8.320;2023-02-17T12:07:17;1.93;;;1.77;;
12846;SDS011;6492;48.128;8.320;2023-02-17T12:11:41;2.17;;;1.73;;
12846;SDS011;6492;48.128;8.320;2023-02-17T12:15:53;3.70;;;1.60;;
12846;SDS011;6492;48.128;8.320;2023-02-17T12:20:05;2.53;;;2.30;;
12846;SDS011;6492;48.128;8.320;2023-02-17T12:24:20;3.47;;;2.00;;
12846;SDS011;6492;48.128;8.320;2023-02-17T12:28:37;2.00;;;1.80;;
12846;SDS011;6492;48.128;8.320;2023-02-17T12:32:49;4.00;;;2.40;;
12846;SDS011;6492;48.128;8.320;2023-02-17T12:37:16;1.73;;;1.60;;
12846;SDS011;6492;48.128;8.320;2023-02-17T12:41:29;2.67;;;1.83;;
12846;SDS011;6492;48.128;8.320;2023-02-17T12:45:35;3.30;;;2.10;;
12846;SDS011;6492;48.128;8.320;2023-02-17T12:49:41;4.63;;;1.90;;
12846;SDS011;6492;48.128;8.320;2023-02-17T12:53:46;2.80;;;2.00;;
12846;SDS011;6492;48.128;8.320;2023-02-17T12:57:54;2.00;;;1.80;;
12846;SDS011;6492;48.128;8.320;2023-02-17T13:02:05;1.67;;;1.57;;
12846;SDS011;6492;48.128;8.320;2023-02-17T13:06:18;2.20;;;1.70;;
12846;SDS011;6492;48.128;8.320;2023-02-17T13:10:29;2.63;;;1.43;;
12846;SDS011;6492;48.128;8.320;2023-02-17T13:14:39;1.87;;;1.70;;
12846;SDS011;6492;48.128;8.320;2023-02-17T13:18:42;3.97;;;2.60;;
12846;SDS011;6492;48.128;8.320;2023-02-17T13:22:46;4.10;;;2.97;;
12846;SDS011;6492;48.128;8.320;2023-02-17T13:26:47;3.30;;;2.10;;
12846;SDS011;6492;48.128;8.320;2023-02-17T13:30:51;1.80;;;1.70;;
12846;SDS011;6492;48.128;8.320;2023-02-17T13:35:02;1.80;;;1.53;;
12846;SDS011;6492;48.128;8.320;2023-02-17T13:43:41;4.30;;;2.50;;
12846;SDS011;6492;48.128;8.320;2023-02-17T13:47:44;3.47;;;2.50;;
12846;SDS011;6492;48.128;8.320;2023-02-17T13:51:55;4.10;;;3.30;;
12846;SDS011;6492;48.128;8.320;2023-02-17T13:56:08;2.93;;;2.63;;
12846;SDS011;6492;48.128;8.320;2023-02-17T14:00:18;6.00;;;3.20;;
12846;SDS011;6492;48.128;8.320;2023-02-17T14:08:44;4.50;;;2.93;;
12846;SDS011;6492;48.128;8.320;2023-02-17T14:13:02;5.13;;;3.10;;
12846;SDS011;6492;48.128;8.320;2023-02-17T14:17:05;4.77;;;3.53;;
12846;SDS011;6492;48.128;8.320;2023-02-17T14:21:10;4.17;;;3.20;;
12846;SDS011;6492;48.128;8.320;2023-02-17T14:25:25;2.20;;;2.00;;
12846;SDS011;6492;48.128;8.320;2023-02-17T14:29:38;2.73;;;1.97;;
12846;SDS011;6492;48.128;8.320;2023-02-17T14:33:50;3.13;;;2.10;;
12846;SDS011;6492;48.128;8.320;2023-02-17T14:38:04;2.87;;;2.50;;
12846;SDS011;6492;48.128;8.320;2023-02-17T14:42:08;3.13;;;2.33;;
12846;SDS011;6492;48.128;8.320;2023-02-17T14:46:11;3.07;;;2.13;;
12846;SDS011;6492;48.128;8.320;2023-02-17T14:50:21;2.77;;;2.40;;
12846;SDS011;6492;48.128;8.320;2023-02-17T14:54:24;4.30;;;2.20;;
12846;SDS011;6492;48.128;8.320;2023-02-17T14:58:28;2.00;;;1.73;;
12846;SDS011;6492;48.128;8.320;2023-02-17T15:02:30;3.83;;;2.10;;
12846;SDS011;6492;48.128;8.320;2023-02-17T15:06:34;2.30;;;2.10;;
12846;SDS011;6492;48.128;8.320;2023-02-17T15:10:41;3.73;;;2.40;;
12846;SDS011;6492;48.128;8.320;2023-02-17T15:14:44;3.50;;;2.60;;
12846;SDS011;6492;48.128;8.320;2023-02-17T15:18:48;2.50;;;2.10;;
12846;SDS011;6492;48.128;8.320;2023-02-17T15:22:55;2.33;;;2.13;;
12846;SDS011;6492;48.128;8.320;2023-02-17T15:27:01;3.40;;;2.43;;
12846;SDS011;6492;48.128;8.320;2023-02-17T15:31:06;2.50;;;2.10;;
12846;SDS011;6492;48.128;8.320;2023-02-17T15:35:15;2.30;;;1.90;;
12846;SDS011;6492;48.128;8.320;2023-02-17T15:39:18;2.50;;;1.90;;
12846;SDS011;6492;48.128;8.320;2023-02-17T15:47:34;4.60;;;2.20;;
12846;SDS011;6492;48.128;8.320;2023-02-17T15:51:35;2.20;;;2.00;;
12846;SDS011;6492;48.128;8.320;2023-02-17T15:55:37;2.10;;;1.83;;
12846;SDS011;6492;48.128;8.320;2023-02-17T15:59:49;2.47;;;2.20;;
12846;SDS011;6492;48.128;8.320;2023-02-17T16:04:01;2.80;;;2.10;;
12846;SDS011;6492;48.128;8.320;2023-02-17T16:08:03;2.67;;;2.10;;
12846;SDS011;6492;48.128;8.320;2023-02-17T16:12:07;1.67;;;1.57;;
12846;SDS011;6492;48.128;8.320;2023-02-17T16:16:18;2.87;;;2.20;;
12846;SDS011;6492;48.128;8.320;2023-02-17T16:20:23;2.50;;;1.80;;
12846;SDS011;6492;48.128;8.320;2023-02-17T16:24:26;2.77;;;2.40;;
12846;SDS011;6492;48.128;8.320;2023-02-17T16:28:28;1.77;;;1.60;;
12846;SDS011;6492;48.128;8.320;2023-02-17T16:32:33;1.63;;;1.53;;
12846;SDS011;6492;48.128;8.320;2023-02-17T16:36:49;4.00;;;2.30;;
12846;SDS011;6492;48.128;8.320;2023-02-17T16:40:54;2.03;;;1.60;;
12846;SDS011;6492;48.128;8.320;2023-02-17T16:49:18;2.20;;;1.80;;
12846;SDS011;6492;48.128;8.320;2023-02-17T16:53:22;1.83;;;1.63;;
12846;SDS011;6492;48.128;8.320;2023-02-17T16:57:25;2.50;;;1.60;;
12846;SDS011;6492;48.128;8.320;2023-02-17T17:01:27;2.17;;;1.77;;
12846;SDS011;6492;48.128;8.320;2023-02-17T17:05:30;2.53;;;1.40;;
12846;SDS011;6492;48.128;8.320;2023-02-17T17:09:33;2.50;;;2.00;;
12846;SDS011;6492;48.128;8.320;2023-02-17T17:13:34;3.00;;;1.60;;
12846;SDS011;6492;48.128;8.320;2023-02-17T17:17:37;2.00;;;1.80;;
12846;SDS011;6492;48.128;8.320;2023-02-17T17:21:44;2.47;;;2.23;;
12846;SDS011;6492;48.128;8.320;2023-02-17T17:25:49;4.20;;;3.23;;
12846;SDS011;6492;48.128;8.320;2023-02-17T17:29:50;7.50;;;5.00;;
12846;SDS011;6492;48.128;8.320;2023-02-17T17:33:52;3.53;;;2.23;;
12846;SDS011;6492;48.128;8.320;2023-02-17T17:37:56;1.80;;;1.60;;
12846;SDS011;6492;48.128;8.320;2023-02-17T17:46:20;2.67;;;2.00;;
12846;SDS011;6492;48.128;8.320;2023-02-17T17:50:24;3.53;;;2.50;;
12846;SDS011;6492;48.128;8.320;2023-02-17T17:54:27;4.50;;;2.80;;
12846;SDS011;6492;48.128;8.320;2023-02-17T17:58:29;3.93;;;3.23;;
12846;SDS011;6492;48.128;8.320;2023-02-17T18:02:32;5.73;;;3.20;;
12846;SDS011;6492;48.128;8.320;2023-02-17T18:06:35;3.80;;;2.90;;
12846;SDS011;6492;48.128;8.320;2023-02-17T18:15:17;2.10;;;1.80;;
12846;SDS011;6492;48.128;8.320;2023-02-17T18:19:19;2.33;;;1.50;;
12846;SDS011;6492;48.128;8.320;2023-02-17T18:23:26;2.00;;;1.60;;
12846;SDS011;6492;48.128;8.320;2023-02-17T18:27:30;1.90;;;1.67;;
12846;SDS011;6492;48.128;8.320;2023-02-17T18:31:43;1.53;;;1.43;;
12846;SDS011;6492;48.128;8.320;2023-02-17T18:36:04;1.70;;;1.57;;
12846;SDS011;6492;48.128;8.320;2023-02-17T18:40:07;3.67;;;2.10;;
12846;SDS011;6492;48.128;8.320;2023-02-17T18:44:14;1.70;;;1.57;;
12846;SDS011;6492;48.128;8.320;2023-02-17T18:52:43;3.00;;;1.50;;
12846;SDS011;6492;48.128;8.320;2023-02-17T18:56:45;1.47;;;1.37;;
12846;SDS011;6492;48.128;8.320;2023-02-17T19:00:48;2.93;;;1.90;;
12846;SDS011;6492;48.128;8.320;2023-02-17T19:09:18;1.73;;;1.40;;
12846;SDS011;6492;48.128;8.320;2023-02-17T19:13:20;1.30;;;1.10;;
12846;SDS011;6492;48.128;8.320;2023-02-17T19:17:23;0.93;;;0.93;;
12846;SDS011;6492;48.128;8.320;2023-02-17T19:21:25;1.50;;;1.30;;
12846;SDS011;6492;48.128;8.320;2023-02-17T19:25:27;1.07;;;0.97;;
12846;SDS011;6492;48.128;8.320;2023-02-17T19:29:29;0.97;;;0.90;;
12846;SDS011;6492;48.128;8.320;2023-02-17T19:37:37;1.40;;;1.30;;
12846;SDS011;6492;48.128;8.320;2023-02-17T19:41:39;1.30;;;1.20;;
12846;SDS011;6492;48.128;8.320;2023-02-17T19:45:44;1.40;;;1.30;;
12846;SDS011;6492;48.128;8.320;2023-02-17T19:49:47;1.00;;;0.90;;
12846;SDS011;6492;48.128;8.320;2023-02-17T19:53:49;1.30;;;1.20;;
12846;SDS011;6492;48.128;8.320;2023-02-17T19:57:51;1.10;;;1.00;;
12846;SDS011;6492;48.128;8.320;2023-02-17T20:01:53;1.33;;;1.23;;
12846;SDS011;6492;48.128;8.320;2023-02-17T20:05:56;1.50;;;1.40;;
12846;SDS011;6492;48.128;8.320;2023-02-17T20:10:02;2.37;;;1.87;;
12846;SDS011;6492;48.128;8.320;2023-02-17T20:14:06;1.70;;;1.60;;
12846;SDS011;6492;48.128;8.320;2023-02-17T20:18:09;1.73;;;1.60;;
12846;SDS011;6492;48.128;8.320;2023-02-17T20:22:13;1.67;;;1.50;;
12846;SDS011;6492;48.128;8.320;2023-02-17T20:26:15;1.60;;;1.50;;
12846;SDS011;6492;48.128;8.320;2023-02-17T20:30:19;1.70;;;1.60;;
12846;SDS011;6492;48.128;8.320;2023-02-17T20:34:23;2.23;;;1.63;;
12846;SDS011;6492;48.128;8.320;2023-02-17T20:38:29;2.23;;;1.60;;
12846;SDS011;6492;48.128;8.320;2023-02-17T20:42:34;3.27;;;2.53;;
12846;SDS011;6492;48.128;8.320;2023-02-17T20:46:35;1.60;;;1.50;;
12846;SDS011;6492;48.128;8.320;2023-02-17T20:50:40;2.30;;;2.07;;
12846;SDS011;6492;48.128;8.320;2023-02-17T20:54:43;2.00;;;1.80;;
12846;SDS011;6492;48.128;8.320;2023-02-17T20:58:45;1.77;;;1.67;;
12846;SDS011;6492;48.128;8.320;2023-02-17T21:03:03;1.93;;;1.77;;
12846;SDS011;6492;48.128;8.320;2023-02-17T21:07:05;1.80;;;1.70;;
12846;SDS011;6492;48.128;8.320;2023-02-17T21:11:08;1.60;;;1.50;;
12846;SDS011;6492;48.128;8.320;2023-02-17T21:15:10;2.07;;;1.87;;
12846;SDS011;6492;48.128;8.320;2023-02-17T21:19:12;3.00;;;2.40;;
12846;SDS011;6492;48.128;8.320;2023-02-17T21:23:14;3.10;;;2.10;;
12846;SDS011;6492;48.128;8.320;2023-02-17T21:27:17;2.50;;;2.30;;
12846;SDS011;6492;48.128;8.320;2023-02-17T21:31:19;1.90;;;1.80;;
12846;SDS011;6492;48.128;8.320;2023-02-17T21:35:21;2.13;;;1.80;;
12846;SDS011;6492;48.128;8.320;2023-02-17T21:39:23;3.00;;;2.40;;
12846;SDS011;6492;48.128;8.320;2023-02-17T21:43:26;2.30;;;2.10;;
12846;SDS011;6492;48.128;8.320;2023-02-17T21:47:45;2.50;;;2.30;;
12846;SDS011;6492;48.128;8.320;2023-02-17T21:51:47;2.30;;;2.03;;
12846;SDS011;6492;48.128;8.320;2023-02-17T21:55:49;2.70;;;1.97;;
12846;SDS011;6492;48.128;8.320;2023-02-17T21:59:53;1.90;;;1.80;;
12846;SDS011;6492;48.128;8.320;2023-02-17T22:03:55;1.70;;;1.60;;
12846;SDS011;6492;48.128;8.320;2023-02-17T22:07:57;2.10;;;1.90;;
12846;SDS011;6492;48.128;8.320;2023-02-17T22:16:14;2.30;;;2.10;;
12846;SDS011;6492;48.128;8.320;2023-02-17T22:20:16;2.17;;;1.97;;
12846;SDS011;6492;48.128;8.320;2023-02-17T22:24:18;1.90;;;1.80;;
12846;SDS011;6492;48.128;8.320;2023-02-17T22:28:20;2.20;;;2.00;;
12846;SDS011;6492;48.128;8.320;2023-02-17T22:32:24;2.30;;;2.10;;
12846;SDS011;6492;48.128;8.320;2023-02-17T22:36:25;2.17;;;1.90;;
12846;SDS011;6492;48.128;8.320;2023-02-17T22:40:28;3.13;;;2.70;;
12846;SDS011;6492;48.128;8.320;2023-02-17T22:44:30;3.23;;;2.40;;
12846;SDS011;6492;48.128;8.320;2023-02-17T22:48:34;3.00;;;2.10;;
12846;SDS011;6492;48.128;8.320;2023-02-17T22:52:37;2.50;;;2.17;;
12846;SDS011;6492;48.128;8.320;2023-02-17T22:56:44;2.60;;;2.30;;
12846;SDS011;6492;48.128;8.320;2023-02-17T23:00:46;2.53;;;2.33;;
12846;SDS011;6492;48.128;8.320;2023-02-17T23:04:50;2.20;;;2.00;;
12846;SDS011;6492;48.128;8.320;2023-02-17T23:08:52;3.03;;;2.70;;
12846;SDS011;6492;48.128;8.320;2023-02-17T23:12:54;2.40;;;2.20;;
12846;SDS011;6492;48.128;8.320;2023-02-17T23:16:56;3.00;;;2.70;;
12846;SDS011;6492;48.128;8.320;2023-02-17T23:21:07;2.40;;;2.20;;
12846;SDS011;6492;48.128;8.320;2023-02-17T23:25:11;2.43;;;2.10;;
12846;SDS011;6492;48.128;8.320;2023-02-17T23:29:13;2.63;;;2.10;;
12846;SDS011;6492;48.128;8.320;2023-02-17T23:33:17;2.83;;;2.10;;
12846;SDS011;6492;48.128;8.320;2023-02-17T23:37:22;2.20;;;2.00;;
12846;SDS011;6492;48.128;8.320;2023-02-17T23:41:24;3.13;;;2.20;;
12846;SDS011;6492;48.128;8.320;2023-02-17T23:45:26;1.93;;;1.77;;
12846;SDS011;6492;48.128;8.320;2023-02-17T23:49:28;2.50;;;1.60;;
12846;SDS011;6492;48.128;8.320;2023-02-17T23:53:31;2.50;;;1.90;;
12846;SDS011;6492;48.128;8.320;2023-02-17T23:57:34;3.03;;;1.63;;
